Time;durP1;ratioP1;P1;durP2;ratioP2;P2;SDS_P1;SDS_P2;PMS_P1;PMS_P2;Temp;Humidity;BMP_temperature;BMP_pressure;BME280_temperature;BME280_humidity;BME280_pressure;Samples;Min_cycle;Max_cycle;Signal;HPM_P1;HPM_P2
2023/12/23 00:00:25;;;;;;;1.00;1.00;;;;;;;7.30;83.10;98577.56;5088138;28;20222;-74
2023/12/23 00:02:53;;;;;;;0.90;0.90;;;;;;;7.47;82.98;98606.84;5075686;28;20601;-74
2023/12/23 00:05:20;;;;;;;1.00;1.00;;;;;;;7.54;83.01;98602.56;5097757;28;20213;-74
2023/12/23 00:07:47;;;;;;;0.70;0.70;;;;;;;7.56;83.05;98612.03;5097292;28;20194;-74
2023/12/23 00:10:14;;;;;;;0.73;0.73;;;;;;;7.59;82.71;98606.03;5093992;28;20202;-74
2023/12/23 00:12:41;;;;;;;0.80;0.80;;;;;;;7.56;82.62;98616.34;5093850;28;20281;-74
2023/12/23 00:15:08;;;;;;;1.03;1.03;;;;;;;7.60;82.95;98620.66;5094181;28;20205;-74
2023/12/23 00:17:35;;;;;;;0.90;0.90;;;;;;;7.59;83.20;98613.75;5094349;28;20662;-74
2023/12/23 00:20:03;;;;;;;0.80;0.80;;;;;;;7.62;82.43;98593.13;5088595;28;20202;-74
2023/12/23 00:22:30;;;;;;;0.70;0.70;;;;;;;7.70;82.74;98610.38;5095714;28;20199;-74
2023/12/23 00:24:57;;;;;;;1.23;1.23;;;;;;;7.67;82.51;98589.69;5108687;28;20202;-74
2023/12/23 00:27:24;;;;;;;0.90;0.90;;;;;;;7.78;81.73;98581.97;5093873;28;20194;-74
2023/12/23 00:29:50;;;;;;;1.00;1.00;;;;;;;7.85;81.04;98588.88;5094066;28;20205;-74
2023/12/23 00:32:17;;;;;;;0.80;0.80;;;;;;;7.84;80.94;98600.94;5093592;28;20233;-74
2023/12/23 00:34:44;;;;;;;0.60;0.60;;;;;;;7.88;80.61;98609.53;5104130;28;20242;-74
2023/12/23 00:37:12;;;;;;;0.70;0.70;;;;;;;7.94;79.89;98614.72;5051023;28;20206;-74
2023/12/23 00:39:40;;;;;;;1.00;1.00;;;;;;;7.93;81.00;98607.81;5094069;28;20198;-74
2023/12/23 00:42:07;;;;;;;0.70;0.70;;;;;;;7.81;81.30;98579.44;5093686;28;20206;-74
2023/12/23 00:44:34;;;;;;;0.70;0.70;;;;;;;7.80;81.62;98586.31;5113345;28;20201;-74
2023/12/23 00:47:00;;;;;;;0.80;0.80;;;;;;;7.90;81.99;98603.53;5094832;28;20224;-74
2023/12/23 00:49:27;;;;;;;0.90;0.90;;;;;;;7.84;82.29;98603.53;5094145;28;20201;-75
2023/12/23 00:51:54;;;;;;;0.73;0.73;;;;;;;7.88;82.20;98619.88;5093669;28;20201;-74
2023/12/23 00:54:23;;;;;;;0.70;0.70;;;;;;;7.97;81.70;98614.72;5094751;28;20230;-75
2023/12/23 00:56:50;;;;;;;0.70;0.70;;;;;;;8.00;80.77;98604.38;5107291;28;20198;-74
2023/12/23 00:59:17;;;;;;;0.70;0.70;;;;;;;7.99;80.93;98593.19;5093818;28;20206;-74
2023/12/23 01:01:44;;;;;;;0.90;0.90;;;;;;;7.99;80.51;98587.16;5057495;28;20202;-74
2023/12/23 01:04:10;;;;;;;0.70;0.70;;;;;;;8.03;80.51;98596.63;5093305;28;20291;-74
2023/12/23 01:06:37;;;;;;;0.80;0.80;;;;;;;7.97;80.77;98594.94;5041647;28;20225;-74
2023/12/23 01:09:04;;;;;;;0.60;0.60;;;;;;;8.03;80.62;98582.88;5057573;28;20202;-74
2023/12/23 01:11:33;;;;;;;0.90;0.90;;;;;;;7.61;81.22;98514.03;5093350;28;20218;-74
2023/12/23 01:13:59;;;;;;;0.77;0.77;;;;;;;7.74;80.70;98544.16;5092956;28;20198;-74
2023/12/23 01:16:26;;;;;;;1.60;1.10;;;;;;;7.97;81.25;98569.13;5094075;28;20218;-74
2023/12/23 01:18:53;;;;;;;0.80;0.80;;;;;;;7.82;81.57;98540.72;5113406;28;20209;-74
2023/12/23 01:21:21;;;;;;;0.80;0.80;;;;;;;7.94;81.60;98553.63;5112453;28;20209;-74
2023/12/23 01:23:48;;;;;;;0.70;0.70;;;;;;;7.86;81.53;98518.34;5082304;28;20318;-73
2023/12/23 01:26:14;;;;;;;0.80;0.80;;;;;;;7.89;82.14;98544.16;5075641;28;20690;-74
2023/12/23 01:28:42;;;;;;;0.90;0.90;;;;;;;8.01;81.36;98549.34;5112241;28;20604;-75
2023/12/23 01:31:09;;;;;;;0.80;0.80;;;;;;;8.05;81.80;98540.75;5102704;28;20209;-74
2023/12/23 01:33:36;;;;;;;0.70;0.70;;;;;;;8.00;82.22;98539.88;5092313;28;20612;-74
2023/12/23 01:36:05;;;;;;;0.70;0.70;;;;;;;7.95;82.73;98544.19;5092295;28;20202;-74
2023/12/23 01:38:32;;;;;;;0.60;0.60;;;;;;;7.80;82.92;98513.22;5093262;28;20784;-75
2023/12/23 01:40:59;;;;;;;0.90;0.90;;;;;;;7.81;83.05;98502.03;5092767;28;20202;-74
2023/12/23 01:43:26;;;;;;;0.70;0.70;;;;;;;8.06;81.55;98532.16;5092617;28;20205;-74
2023/12/23 01:45:58;;;;;;;0.70;0.70;;;;;;;8.02;81.40;98517.53;5088257;28;20222;-74
2023/12/23 01:48:27;;;;;;;0.80;0.80;;;;;;;8.17;81.17;98535.56;5090482;28;20206;-74
2023/12/23 01:50:57;;;;;;;0.70;0.70;;;;;;;8.22;80.88;98526.09;5092127;28;20220;-74
2023/12/23 01:53:25;;;;;;;0.73;0.73;;;;;;;8.12;80.78;98498.59;5091857;28;20198;-73
2023/12/23 01:55:53;;;;;;;0.80;0.80;;;;;;;8.26;80.56;98509.75;5091634;28;20209;-73
2023/12/23 01:58:20;;;;;;;0.70;0.70;;;;;;;8.25;80.65;98513.19;5092199;28;20201;-73
2023/12/23 02:00:47;;;;;;;0.70;0.70;;;;;;;8.32;80.20;98525.25;5092380;28;20239;-73
2023/12/23 02:03:16;;;;;;;0.67;0.67;;;;;;;8.34;79.59;98515.81;5091720;28;20268;-73
2023/12/23 02:05:45;;;;;;;0.90;0.90;;;;;;;8.04;79.39;98461.59;5092480;28;20245;-73
2023/12/23 02:08:12;;;;;;;2.37;1.03;;;;;;;8.37;79.44;98513.22;5092320;28;20204;-73
2023/12/23 02:10:39;;;;;;;0.70;0.70;;;;;;;8.38;78.99;98509.75;5092172;28;20206;-73
2023/12/23 02:13:17;;;;;;;0.70;0.70;;;;;;;8.30;79.76;98490.00;5091547;28;20198;-73
2023/12/23 02:15:47;;;;;;;0.70;0.70;;;;;;;8.30;79.87;98524.41;5091951;28;20214;-74
2023/12/23 02:18:15;;;;;;;1.60;1.13;;;;;;;8.45;79.53;98521.78;5091975;28;20217;-73
2023/12/23 02:20:42;;;;;;;0.60;0.60;;;;;;;8.22;79.54;98499.44;5091828;28;20206;-73
2023/12/23 02:23:10;;;;;;;0.80;0.80;;;;;;;8.44;79.33;98519.22;5091593;28;20198;-73
2023/12/23 02:25:37;;;;;;;0.80;0.80;;;;;;;8.20;80.48;98502.03;5091961;28;20687;-74
2023/12/23 02:28:07;;;;;;;0.80;0.80;;;;;;;8.26;81.73;98504.59;5091850;28;20202;-73
2023/12/23 02:30:39;;;;;;;0.60;0.60;;;;;;;8.21;82.47;98503.72;5091872;28;20256;-74
2023/12/23 02:33:06;;;;;;;0.90;0.90;;;;;;;8.20;82.01;98496.88;5091475;28;20198;-73
2023/12/23 02:35:32;;;;;;;0.70;0.70;;;;;;;8.16;81.90;98487.41;5064208;28;20209;-74
2023/12/23 02:37:59;;;;;;;0.80;0.80;;;;;;;8.18;81.95;98490.81;5092047;28;20209;-73
2023/12/23 02:40:28;;;;;;;1.80;1.17;;;;;;;8.17;82.14;98488.25;5096708;28;20697;-74
2023/12/23 02:42:55;;;;;;;0.77;0.77;;;;;;;8.02;81.86;98486.56;5100590;28;20210;-74
2023/12/23 02:45:21;;;;;;;0.70;0.70;;;;;;;8.00;81.27;98485.69;5099389;28;20213;-74
2023/12/23 02:47:48;;;;;;;0.70;0.70;;;;;;;8.11;80.75;98489.13;5096479;28;20720;-74
2023/12/23 02:50:15;;;;;;;1.10;1.10;;;;;;;7.99;79.46;98478.78;5038313;28;20202;-74
2023/12/23 02:52:42;;;;;;;0.70;0.70;;;;;;;8.12;79.38;98506.31;5035737;28;20663;-73
2023/12/23 02:55:09;;;;;;;0.73;0.73;;;;;;;8.23;78.17;98508.91;5071200;28;20660;-73
2023/12/23 02:57:37;;;;;;;0.80;0.80;;;;;;;8.20;77.48;98467.59;5078034;28;20190;-73
2023/12/23 03:00:04;;;;;;;1.40;1.40;;;;;;;8.40;76.43;98489.09;5091617;28;20221;-73
2023/12/23 03:02:31;;;;;;;0.80;0.80;;;;;;;8.45;76.50;98480.47;5095312;28;20198;-74
2023/12/23 03:04:58;;;;;;;1.10;1.10;;;;;;;8.55;76.03;98477.88;5059112;28;20751;-73
2023/12/23 03:07:25;;;;;;;0.80;0.80;;;;;;;8.55;75.13;98473.56;5106684;28;20226;-74
2023/12/23 03:09:51;;;;;;;0.70;0.70;;;;;;;8.69;73.95;98470.94;5085588;28;20209;-73
2023/12/23 03:12:18;;;;;;;0.60;0.60;;;;;;;8.78;73.83;98470.91;5092850;28;20202;-74
2023/12/23 03:14:46;;;;;;;0.80;0.80;;;;;;;8.86;73.61;98467.44;5091084;28;20214;-74
2023/12/23 03:17:13;;;;;;;0.67;0.67;;;;;;;8.72;74.17;98473.50;5090765;28;20190;-74
2023/12/23 03:19:41;;;;;;;0.80;0.80;;;;;;;8.76;73.59;98447.66;5091104;28;20289;-74
2023/12/23 03:22:08;;;;;;;0.90;0.90;;;;;;;8.90;73.27;98453.63;5091829;28;20262;-74
2023/12/23 03:24:35;;;;;;;0.80;0.80;;;;;;;8.82;73.23;98450.22;5111505;28;20194;-74
2023/12/23 03:27:02;;;;;;;0.77;0.77;;;;;;;8.91;72.81;98470.00;5114265;28;20281;-74
2023/12/23 03:29:29;;;;;;;1.23;1.23;;;;;;;8.98;73.07;98507.00;5089834;28;20204;-74
2023/12/23 03:31:57;;;;;;;0.80;0.80;;;;;;;9.06;73.38;98494.94;5095764;28;20205;-74
2023/12/23 03:34:24;;;;;;;0.70;0.70;;;;;;;8.91;74.08;98491.53;5094775;28;20241;-74
2023/12/23 03:36:50;;;;;;;1.17;1.17;;;;;;;8.89;74.70;98487.22;5107547;28;20205;-74
2023/12/23 03:39:17;;;;;;;0.60;0.60;;;;;;;8.69;75.61;98483.88;5097112;28;20201;-74
2023/12/23 03:41:44;;;;;;;0.70;0.70;;;;;;;8.68;76.73;98476.97;5094523;28;20263;-74
2023/12/23 03:44:10;;;;;;;0.90;0.90;;;;;;;8.59;77.37;98451.19;5095453;28;20189;-74
2023/12/23 03:46:37;;;;;;;0.60;0.60;;;;;;;8.71;77.18;98482.97;5094755;28;20234;-74
2023/12/23 03:49:05;;;;;;;1.00;1.00;;;;;;;8.73;77.98;98457.16;5094692;28;20202;-73
2023/12/23 03:51:32;;;;;;;0.80;0.80;;;;;;;8.65;79.67;98444.25;5095170;28;20267;-74
2023/12/23 03:53:59;;;;;;;1.93;1.83;;;;;;;8.57;79.38;98432.22;5094547;28;20201;-74
2023/12/23 03:56:26;;;;;;;0.80;0.80;;;;;;;8.42;80.73;98423.66;5090617;28;20206;-74
2023/12/23 03:58:53;;;;;;;1.00;1.00;;;;;;;8.39;80.28;98438.31;5094309;28;20625;-74
2023/12/23 04:01:20;;;;;;;1.43;1.43;;;;;;;8.45;80.92;98408.16;5096627;28;20621;-74
2023/12/23 04:03:46;;;;;;;0.70;0.70;;;;;;;8.33;81.73;98423.72;5075317;28;20637;-74
2023/12/23 04:06:15;;;;;;;0.70;0.70;;;;;;;8.32;82.70;98365.19;5098779;28;20255;-74
2023/12/23 04:08:43;;;;;;;0.80;0.80;;;;;;;8.35;82.60;98421.97;5103273;28;20201;-74
2023/12/23 04:11:09;;;;;;;1.80;1.70;;;;;;;8.28;82.58;98404.78;5094307;28;20676;-74
2023/12/23 04:13:38;;;;;;;0.70;0.70;;;;;;;8.35;81.85;98415.94;5094116;28;20202;-74
2023/12/23 04:16:05;;;;;;;1.43;1.43;;;;;;;8.41;81.63;98396.16;5090869;28;20209;-74
2023/12/23 04:18:32;;;;;;;0.60;0.60;;;;;;;8.34;80.60;98399.63;5098799;28;20213;-74
2023/12/23 04:20:59;;;;;;;0.93;0.93;;;;;;;8.37;80.49;98381.53;5094129;28;20194;-73
2023/12/23 04:23:27;;;;;;;0.70;0.70;;;;;;;8.35;79.88;98359.13;5094005;28;20272;-73
2023/12/23 04:25:54;;;;;;;0.87;0.87;;;;;;;8.56;79.53;98404.69;5095575;28;20670;-74
2023/12/23 04:28:24;;;;;;;0.60;0.60;;;;;;;8.43;79.27;98383.22;5106684;28;20233;-74
2023/12/23 04:30:53;;;;;;;0.90;0.90;;;;;;;8.45;79.73;98392.66;5093923;28;20282;-73
2023/12/23 04:33:20;;;;;;;0.70;0.70;;;;;;;8.49;78.97;98392.69;5093530;28;20547;-73
2023/12/23 04:35:47;;;;;;;1.50;1.43;;;;;;;8.67;79.33;98410.69;5085590;28;20998;-73
2023/12/23 04:38:14;;;;;;;0.80;0.80;;;;;;;8.66;79.24;98432.22;5093060;28;20640;-74
2023/12/23 04:40:42;;;;;;;1.67;1.57;;;;;;;8.76;79.21;98446.81;5093619;28;20198;-74
2023/12/23 04:43:09;;;;;;;0.70;0.70;;;;;;;8.68;79.55;98440.81;5093539;28;20605;-74
2023/12/23 04:45:35;;;;;;;0.70;0.70;;;;;;;8.54;81.10;98417.63;5093823;28;20194;-74
2023/12/23 04:48:02;;;;;;;0.70;0.70;;;;;;;8.30;81.87;98350.56;5097991;28;20241;-74
2023/12/23 04:50:29;;;;;;;1.00;1.00;;;;;;;8.44;82.41;98396.13;5093391;28;20587;-74
2023/12/23 04:52:56;;;;;;;0.73;0.73;;;;;;;8.52;83.02;98414.19;5093222;28;21276;-74
2023/12/23 04:55:23;;;;;;;1.40;1.30;;;;;;;8.56;82.35;98433.13;5086574;28;20255;-74
2023/12/23 04:57:51;;;;;;;0.70;0.70;;;;;;;8.44;82.25;98437.47;5095713;28;20260;-74
2023/12/23 05:00:18;;;;;;;0.90;0.90;;;;;;;8.51;83.13;98460.66;5093379;28;20206;-74
2023/12/23 05:02:45;;;;;;;12.20;1.83;;;;;;;8.47;83.21;98452.06;5092948;28;20209;-73
2023/12/23 05:05:12;;;;;;;0.80;0.80;;;;;;;8.53;82.89;98446.00;5092972;28;20233;-74
2023/12/23 05:07:38;;;;;;;0.60;0.60;;;;;;;8.59;82.79;98456.34;5093144;28;20228;-74
2023/12/23 05:10:06;;;;;;;1.57;1.57;;;;;;;8.59;83.85;98433.09;5092358;28;20209;-74
2023/12/23 05:12:33;;;;;;;1.50;1.50;;;;;;;8.46;83.20;98416.78;5092742;28;20275;-73
2023/12/23 05:15:01;;;;;;;1.10;1.10;;;;;;;8.48;83.72;98416.78;5087363;28;20213;-74
2023/12/23 05:17:28;;;;;;;0.90;0.90;;;;;;;8.65;83.92;98436.50;5093781;28;20338;-73
2023/12/23 05:19:56;;;;;;;0.70;0.70;;;;;;;8.69;82.86;98437.34;5090663;28;20213;-73
2023/12/23 05:22:23;;;;;;;0.70;0.70;;;;;;;8.53;82.90;98409.84;5094365;28;20640;-74
2023/12/23 05:24:49;;;;;;;0.70;0.70;;;;;;;8.69;82.56;98424.44;5092072;28;20194;-73
2023/12/23 05:27:16;;;;;;;2.23;1.40;;;;;;;8.61;82.29;98428.78;5092263;28;20226;-74
2023/12/23 05:29:43;;;;;;;2.00;1.50;;;;;;;8.55;83.36;98411.59;5091982;28;20206;-74
2023/12/23 05:32:11;;;;;;;4.30;1.30;;;;;;;8.49;83.96;98392.69;5091750;28;20198;-74
2023/12/23 05:34:38;;;;;;;2.27;2.07;;;;;;;8.62;82.93;98409.84;5091441;28;20257;-74
2023/12/23 05:37:05;;;;;;;1.63;1.53;;;;;;;8.57;82.94;98411.56;5090460;28;20210;-74
2023/12/23 05:39:31;;;;;;;0.73;0.73;;;;;;;8.59;83.76;98407.28;5091889;28;20677;-74
2023/12/23 05:41:59;;;;;;;1.10;1.10;;;;;;;8.50;84.12;98413.31;5046861;28;20201;-74
2023/12/23 05:44:26;;;;;;;0.70;0.70;;;;;;;8.44;84.01;98429.72;5092174;28;20222;-74
2023/12/23 05:46:53;;;;;;;1.47;1.37;;;;;;;8.58;84.13;98418.47;5100099;28;20221;-74
2023/12/23 05:49:21;;;;;;;1.10;1.10;;;;;;;8.47;83.86;98428.81;5099513;28;20213;-74
2023/12/23 05:51:48;;;;;;;1.13;1.13;;;;;;;8.48;84.68;98447.78;5058570;28;20207;-74
2023/12/23 05:54:15;;;;;;;1.30;1.30;;;;;;;8.64;84.93;98446.84;5112173;28;20232;-74
2023/12/23 05:56:42;;;;;;;1.03;1.03;;;;;;;8.64;84.59;98454.59;5096672;28;20979;-74
2023/12/23 05:59:09;;;;;;;1.00;1.00;;;;;;;8.67;89.59;98460.59;5090337;28;20685;-75
2023/12/23 06:01:35;;;;;;;2.33;2.23;;;;;;;8.71;87.18;98459.72;5094144;28;20201;-73
2023/12/23 06:04:02;;;;;;;0.90;0.90;;;;;;;8.54;87.66;98474.44;5091390;28;20203;-74
2023/12/23 06:06:30;;;;;;;0.80;0.80;;;;;;;8.41;88.64;98447.78;5091645;28;20202;-73
2023/12/23 06:08:57;;;;;;;0.83;0.83;;;;;;;8.03;92.85;98408.25;5067728;28;20236;-73
2023/12/23 06:11:24;;;;;;;1.00;1.00;;;;;;;8.06;96.32;98434.06;5091153;28;20197;-71
2023/12/23 06:13:50;;;;;;;0.97;0.97;;;;;;;7.69;99.59;98427.22;5056200;28;20209;-72
2023/12/23 06:16:17;;;;;;;0.90;0.90;;;;;;;7.87;100.00;98422.06;5085451;28;20666;-73
2023/12/23 06:18:44;;;;;;;2.33;2.20;;;;;;;7.97;100.00;98387.63;5090923;28;20274;-73
2023/12/23 06:21:11;;;;;;;1.23;1.23;;;;;;;8.09;100.00;98379.88;5092052;28;20202;-73
2023/12/23 06:23:39;;;;;;;5.03;2.40;;;;;;;8.03;100.00;98376.41;5090992;28;20201;-73
2023/12/23 06:26:05;;;;;;;1.20;1.20;;;;;;;7.98;100.00;98358.38;5091711;28;20217;-72
2023/12/23 06:28:32;;;;;;;0.70;0.70;;;;;;;8.05;100.00;98359.22;5088614;28;20676;-76
2023/12/23 06:30:59;;;;;;;0.70;0.70;;;;;;;8.10;100.00;98339.44;5081727;28;20257;-71
2023/12/23 06:33:26;;;;;;;1.00;0.97;;;;;;;8.09;97.89;98333.41;5088460;28;21161;-75
2023/12/23 06:35:52;;;;;;;1.00;1.00;;;;;;;8.30;96.29;98350.56;5060293;28;20202;-74
2023/12/23 06:38:19;;;;;;;0.70;0.70;;;;;;;8.35;96.28;98348.81;5077675;28;20207;-73
2023/12/23 06:40:47;;;;;;;0.70;0.70;;;;;;;8.50;96.23;98342.72;5068823;28;20283;-75
2023/12/23 06:43:14;;;;;;;1.17;1.17;;;;;;;8.56;95.90;98395.22;5085398;28;20210;-76
2023/12/23 06:45:41;;;;;;;0.80;0.80;;;;;;;8.64;94.09;98408.09;5093135;28;20666;-77
2023/12/23 06:48:08;;;;;;;1.00;1.00;;;;;;;8.80;91.48;98408.03;5093141;28;20233;-74
2023/12/23 06:50:35;;;;;;;0.80;0.80;;;;;;;9.07;88.86;98383.75;5090871;28;20190;-77
2023/12/23 06:53:01;;;;;;;0.83;0.83;;;;;;;9.06;88.34;98337.25;5091142;28;20202;-77
2023/12/23 06:55:28;;;;;;;2.00;1.90;;;;;;;9.22;89.85;98359.53;5098764;28;20205;-74
2023/12/23 06:57:57;;;;;;;0.80;0.80;;;;;;;9.07;92.83;98357.03;5073335;28;20210;-78
2023/12/23 07:00:24;;;;;;;0.70;0.70;;;;;;;8.91;93.35;98330.44;5056484;28;20266;-77
2023/12/23 07:02:51;;;;;;;1.00;1.00;;;;;;;9.10;89.04;98347.53;5087438;28;20211;-78
2023/12/23 07:05:18;;;;;;;1.00;1.00;;;;;;;9.07;89.78;98321.72;5085044;28;20210;-76
2023/12/23 07:07:44;;;;;;;1.00;1.00;;;;;;;9.22;87.24;98357.78;5057460;28;20226;-76
2023/12/23 07:10:13;;;;;;;0.70;0.70;;;;;;;9.34;86.26;98370.66;5088980;28;20222;-75
2023/12/23 07:12:40;;;;;;;0.80;0.80;;;;;;;9.34;83.72;98375.81;5089587;28;20262;-75
2023/12/23 07:15:09;;;;;;;1.23;1.20;;;;;;;9.60;82.05;98418.69;5092148;28;20212;-74
2023/12/23 07:17:36;;;;;;;0.70;0.70;;;;;;;9.58;79.27;98423.03;5097658;28;20202;-74
2023/12/23 07:20:03;;;;;;;0.70;0.70;;;;;;;9.74;78.78;98424.63;5092184;28;20266;-77
2023/12/23 07:22:30;;;;;;;0.80;0.80;;;;;;;9.75;76.82;98444.47;5088469;28;20706;-77
2023/12/23 07:24:57;;;;;;;0.77;0.77;;;;;;;9.75;76.84;98478.09;5080916;28;20670;-77
2023/12/23 07:27:24;;;;;;;0.80;0.80;;;;;;;9.33;80.84;98440.47;5090539;28;20248;-76
2023/12/23 07:29:51;;;;;;;0.70;0.70;;;;;;;9.36;83.25;98493.03;5090600;28;20209;-78
2023/12/23 07:32:19;;;;;;;0.90;0.90;;;;;;;8.52;91.74;98476.19;5081382;28;20201;-78
2023/12/23 07:34:46;;;;;;;0.97;0.97;;;;;;;8.13;98.45;98482.25;5089039;28;20575;-77
2023/12/23 07:37:12;;;;;;;0.80;0.80;;;;;;;8.31;97.52;98492.56;5090006;28;20614;-75
2023/12/23 07:39:39;;;;;;;0.90;0.90;;;;;;;8.61;94.62;98486.47;5083612;28;20728;-76
2023/12/23 07:42:06;;;;;;;0.90;0.90;;;;;;;8.77;93.86;98445.94;5090784;28;20927;-76
2023/12/23 07:44:36;;;;;;;1.23;1.23;;;;;;;8.58;92.37;98414.16;5093803;28;20194;-74
2023/12/23 07:47:03;;;;;;;2.70;2.07;;;;;;;9.06;91.29;98467.31;5088310;28;20202;-73
2023/12/23 07:49:32;;;;;;;0.77;0.77;;;;;;;9.07;89.82;98513.00;5089296;28;20701;-75
2023/12/23 07:51:58;;;;;;;0.97;0.97;;;;;;;9.10;90.80;98510.38;5093193;28;20229;-77
2023/12/23 07:54:25;;;;;;;1.17;1.17;;;;;;;8.93;93.80;98517.34;5049286;28;20234;-73
2023/12/23 07:56:52;;;;;;;0.90;0.90;;;;;;;8.84;94.86;98504.50;5037958;28;20698;-76
2023/12/23 07:59:19;;;;;;;1.00;1.00;;;;;;;8.86;96.69;98534.63;5089178;28;20666;-76
2023/12/23 08:01:47;;;;;;;0.70;0.70;;;;;;;8.83;97.87;98550.13;5089756;28;20202;-76
2023/12/23 08:04:14;;;;;;;0.80;0.80;;;;;;;8.76;100.00;98560.50;5099331;28;20209;-75
2023/12/23 08:06:43;;;;;;;1.13;1.03;;;;;;;8.69;100.00;98528.66;5059222;28;20206;-78
2023/12/23 08:09:10;;;;;;;1.00;1.00;;;;;;;8.61;100.00;98532.09;5081190;28;20226;-77
2023/12/23 08:11:36;;;;;;;2.00;1.10;;;;;;;8.76;100.00;98568.25;5077099;28;20207;-78
2023/12/23 08:14:03;;;;;;;1.60;0.80;;;;;;;8.81;100.00;98540.69;5088207;28;20225;-78
2023/12/23 08:16:30;;;;;;;0.83;0.83;;;;;;;8.84;100.00;98514.81;5093621;28;20201;-76
2023/12/23 08:18:57;;;;;;;0.70;0.70;;;;;;;8.74;100.00;98487.31;5093618;28;20542;-78
2023/12/23 08:21:24;;;;;;;0.70;0.70;;;;;;;9.12;100.00;98542.28;5094028;28;20229;-76
2023/12/23 08:23:52;;;;;;;0.70;0.70;;;;;;;9.25;100.00;98551.69;5093819;28;20206;-77
2023/12/23 08:26:19;;;;;;;0.80;0.80;;;;;;;9.23;100.00;98561.19;5093661;28;20701;-78
2023/12/23 08:28:46;;;;;;;2.53;1.43;;;;;;;9.21;100.00;98583.59;5094094;28;20218;-78
2023/12/23 08:31:13;;;;;;;0.90;0.90;;;;;;;9.19;100.00;98615.50;5093597;28;20242;-78
2023/12/23 08:33:39;;;;;;;0.70;0.70;;;;;;;9.09;100.00;98590.56;5092292;28;20237;-78
2023/12/23 08:36:07;;;;;;;0.70;0.70;;;;;;;9.18;100.00;98612.06;5093988;28;20194;-76
2023/12/23 08:38:33;;;;;;;0.90;0.90;;;;;;;9.24;100.00;98624.97;5079166;28;20206;-80
2023/12/23 08:41:02;;;;;;;0.80;0.80;;;;;;;9.20;100.00;98610.34;5057835;28;20205;-78
2023/12/23 08:43:29;;;;;;;0.70;0.70;;;;;;;8.28;100.00;98478.75;5078662;28;20210;-79
2023/12/23 08:45:55;;;;;;;1.27;1.10;;;;;;;9.16;100.00;98607.78;5089493;28;20237;-77
2023/12/23 08:48:22;;;;;;;0.90;0.90;;;;;;;9.13;100.00;98580.19;5087231;28;20213;-78
2023/12/23 08:50:49;;;;;;;2.13;1.10;;;;;;;9.09;100.00;98603.47;5086709;28;20221;-77
2023/12/23 08:53:16;;;;;;;2.00;1.87;;;;;;;9.16;100.00;98595.72;5079255;28;20685;-78
2023/12/23 08:55:44;;;;;;;1.43;1.43;;;;;;;9.19;100.00;98621.53;5079829;28;20203;-78
2023/12/23 08:58:12;;;;;;;0.80;0.80;;;;;;;9.26;100.00;98625.84;5073198;28;20597;-78
2023/12/23 09:00:39;;;;;;;0.87;0.87;;;;;;;9.06;100.00;98617.25;5079995;28;20260;-78
2023/12/23 09:03:06;;;;;;;1.07;1.07;;;;;;;9.10;100.00;98637.06;5082607;28;20205;-78
2023/12/23 09:05:33;;;;;;;0.90;0.90;;;;;;;9.15;100.00;98631.91;5075296;28;20206;-75
2023/12/23 09:07:59;;;;;;;3.90;1.97;;;;;;;9.09;100.00;98593.13;5088852;28;20234;-78
2023/12/23 09:10:26;;;;;;;0.70;0.70;;;;;;;9.17;99.39;98624.97;5093038;28;20197;-78
2023/12/23 09:12:53;;;;;;;0.70;0.70;;;;;;;9.25;98.94;98626.69;5092867;28;20198;-75
2023/12/23 09:15:21;;;;;;;0.70;0.70;;;;;;;9.40;98.39;98634.41;5092664;28;20202;-78
2023/12/23 09:17:48;;;;;;;0.60;0.60;;;;;;;9.27;96.58;98635.31;5092957;28;20211;-76
2023/12/23 09:20:14;;;;;;;0.70;0.70;;;;;;;9.32;95.97;98641.31;5057508;28;20201;-75
2023/12/23 09:22:41;;;;;;;0.70;0.70;;;;;;;9.15;95.17;98627.59;5092716;28;20674;-79
2023/12/23 09:25:09;;;;;;;1.53;1.10;;;;;;;9.13;94.28;98641.41;5089310;28;20600;-77
2023/12/23 09:27:35;;;;;;;0.70;0.70;;;;;;;9.20;94.80;98637.94;5079909;28;20217;-78
2023/12/23 09:30:02;;;;;;;0.70;0.70;;;;;;;8.88;93.87;98575.97;5076275;28;20221;-78
2023/12/23 09:32:30;;;;;;;0.80;0.80;;;;;;;9.34;94.05;98649.94;5092475;28;20723;-78
2023/12/23 09:34:57;;;;;;;0.80;0.80;;;;;;;9.30;94.65;98660.31;5092041;28;20238;-77
2023/12/23 09:37:24;;;;;;;0.73;0.73;;;;;;;9.26;94.92;98669.78;5092557;28;20620;-77
2023/12/23 09:39:50;;;;;;;0.87;0.87;;;;;;;9.29;94.58;98687.88;5092497;28;20201;-77
2023/12/23 09:42:17;;;;;;;0.80;0.80;;;;;;;9.26;95.61;98697.38;5092500;28;20190;-77
2023/12/23 09:44:44;;;;;;;1.10;1.10;;;;;;;9.20;96.40;98695.69;5085075;28;20202;-77
2023/12/23 09:47:11;;;;;;;0.90;0.90;;;;;;;9.16;95.23;98712.06;5041049;28;20198;-78
2023/12/23 09:49:39;;;;;;;1.20;1.10;;;;;;;9.21;95.69;98715.47;5081939;28;20238;-74
2023/12/23 09:52:06;;;;;;;1.00;1.00;;;;;;;9.16;95.24;98719.81;5039358;28;20205;-74
2023/12/23 09:54:38;;;;;;;2.10;1.63;;;;;;;9.15;96.36;98731.00;5071517;28;20207;-78
2023/12/23 09:57:05;;;;;;;0.90;0.90;;;;;;;9.25;94.96;98724.94;5091498;28;20229;-78
2023/12/23 09:59:32;;;;;;;1.50;1.37;;;;;;;9.10;94.02;98726.69;5091875;28;20206;-78
2023/12/23 10:01:59;;;;;;;0.63;0.63;;;;;;;9.09;94.40;98748.25;5085821;28;20710;-79
2023/12/23 10:04:26;;;;;;;0.70;0.70;;;;;;;9.10;93.93;98737.91;5077921;28;20241;-78
2023/12/23 10:06:54;;;;;;;1.60;1.50;;;;;;;9.18;94.00;98733.59;5100592;28;20674;-81
2023/12/23 10:09:21;;;;;;;1.00;1.00;;;;;;;9.07;94.59;98730.16;5104338;28;20214;-81
2023/12/23 10:11:48;;;;;;;1.97;1.87;;;;;;;9.08;93.03;98756.88;5103277;28;20213;-81
2023/12/23 10:14:15;;;;;;;0.60;0.60;;;;;;;8.79;92.97;98726.72;5091106;28;20212;-81
2023/12/23 10:16:42;;;;;;;0.70;0.70;;;;;;;9.15;91.24;98768.94;5098939;28;20217;-81
2023/12/23 10:19:09;;;;;;;2.47;1.50;;;;;;;8.99;90.90;98765.47;5094836;28;20210;-75
2023/12/23 10:21:36;;;;;;;1.93;1.03;;;;;;;9.08;90.69;98772.38;5092345;28;20225;-78
2023/12/23 10:24:05;;;;;;;0.80;0.80;;;;;;;8.85;89.84;98759.44;5093698;28;20198;-72
2023/12/23 10:26:32;;;;;;;0.83;0.80;;;;;;;8.87;91.70;98770.66;5075415;28;20202;-77
2023/12/23 10:29:04;;;;;;;1.03;1.03;;;;;;;9.01;91.16;98776.69;5087943;28;20232;-78
2023/12/23 10:31:34;;;;;;;0.70;0.70;;;;;;;8.90;89.81;98758.59;5089960;28;20201;-78
2023/12/23 10:34:04;;;;;;;1.00;1.00;;;;;;;8.93;89.66;98762.91;5086960;28;20241;-78
2023/12/23 10:36:32;;;;;;;2.40;2.20;;;;;;;8.98;89.08;98761.19;5089319;28;20205;-78
2023/12/23 10:39:03;;;;;;;0.70;0.70;;;;;;;8.93;89.73;98743.09;5094795;28;20588;-78
2023/12/23 10:41:46;;;;;;;0.90;0.90;;;;;;;8.70;90.16;98724.16;5088788;28;20210;-79
2023/12/23 10:44:14;;;;;;;1.20;1.20;;;;;;;8.74;89.68;98745.69;5055535;28;20214;-77
2023/12/23 10:46:42;;;;;;;1.10;1.10;;;;;;;8.68;90.51;98730.16;5091102;28;20221;-77
2023/12/23 10:49:11;;;;;;;0.90;0.90;;;;;;;8.57;90.36;98716.34;5091487;28;20225;-77
2023/12/23 10:51:39;;;;;;;0.90;0.90;;;;;;;8.61;90.59;98707.75;5082334;28;20671;-77
2023/12/23 10:54:08;;;;;;;0.97;0.97;;;;;;;8.65;89.69;98725.84;5054472;28;20226;-78
2023/12/23 10:56:38;;;;;;;0.80;0.80;;;;;;;8.67;87.35;98703.44;5083390;28;20219;-78
2023/12/23 10:59:05;;;;;;;0.80;0.80;;;;;;;8.68;86.84;98686.22;5091257;28;20318;-79
2023/12/23 11:01:33;;;;;;;1.30;1.30;;;;;;;8.41;85.72;98649.22;5091278;28;20194;-78
2023/12/23 11:04:01;;;;;;;1.10;1.10;;;;;;;8.73;85.88;98677.63;5091081;28;20197;-78
2023/12/23 11:06:30;;;;;;;1.00;1.00;;;;;;;8.72;85.23;98696.56;5091264;28;20584;-78
2023/12/23 11:08:59;;;;;;;0.70;0.70;;;;;;;8.76;83.26;98692.25;5091239;28;20226;-79
2023/12/23 11:11:27;;;;;;;1.27;1.27;;;;;;;8.76;83.13;98700.88;5086113;28;20198;-79
2023/12/23 11:13:55;;;;;;;2.00;1.57;;;;;;;8.74;83.53;98710.34;5080424;28;20214;-78
2023/12/23 11:16:22;;;;;;;0.70;0.70;;;;;;;8.83;83.28;98710.34;5079977;28;20678;-77
2023/12/23 11:18:51;;;;;;;0.70;0.70;;;;;;;8.72;80.87;98695.72;5090579;28;20198;-77
2023/12/23 11:21:18;;;;;;;0.60;0.60;;;;;;;8.94;78.91;98718.97;5090751;28;20191;-78
2023/12/23 11:23:45;;;;;;;0.70;0.70;;;;;;;8.78;79.72;98675.03;5090916;28;20213;-78
2023/12/23 11:26:42;;;;;;;0.90;0.90;;;;;;;9.03;79.08;98700.00;5091203;28;20205;-77
2023/12/23 11:29:14;;;;;;;4.17;3.43;;;;;;;8.87;75.73;98716.38;5035253;28;20238;-78
2023/12/23 11:31:41;;;;;;;0.70;0.70;;;;;;;8.78;75.10;98706.03;5034790;28;20223;-77
2023/12/23 11:34:15;;;;;;;0.70;0.70;;;;;;;8.78;73.65;98711.19;5040511;28;20636;-75
2023/12/23 11:36:43;;;;;;;1.00;1.00;;;;;;;8.86;71.14;98743.09;4987291;28;20206;-72
2023/12/23 11:39:12;;;;;;;0.90;0.90;;;;;;;8.94;67.96;98738.78;5033833;28;20219;-71
2023/12/23 11:41:42;;;;;;;1.40;1.40;;;;;;;8.93;66.40;98714.66;5037741;28;20659;-74